Time;durP1;ratioP1;P1;durP2;ratioP2;P2;SDS_P1;SDS_P2;PMS_P1;PMS_P2;Temp;Humidity;BMP_temperature;BMP_pressure;BME280_temperature;BME280_humidity;BME280_pressure;Samples;Min_cycle;Max_cycle;Signal;HPM_P1;HPM_P2
2021/06/02 00:00:51;;;;;;;5.97;3.72;;;16.50;72.00;;;15.80;63.81;100453.63;5049985;28;20103;-78
2021/06/02 00:03:34;;;;;;;5.60;3.60;;;16.40;72.00;;;15.78;63.87;100450.28;5050387;28;20048;-78
2021/06/02 00:06:12;;;;;;;6.88;3.50;;;16.40;72.00;;;15.74;64.16;100454.53;5050520;28;20049;-78
2021/06/02 00:08:52;;;;;;;6.75;3.20;;;16.40;72.20;;;15.71;64.42;100444.81;5050517;28;20048;-78
2021/06/02 00:11:30;;;;;;;6.65;3.60;;;16.40;72.50;;;15.67;64.54;100443.56;5049961;28;20041;-78
2021/06/02 00:14:08;;;;;;;6.60;3.53;;;16.30;72.60;;;15.65;64.57;100442.97;5050209;28;20073;-78
2021/06/02 00:16:43;;;;;;;7.43;3.38;;;16.30;72.80;;;15.62;64.59;100448.88;5050138;28;20144;-78
2021/06/02 00:19:21;;;;;;;8.43;3.63;;;16.20;73.10;;;15.58;64.54;100442.16;5050253;28;20045;-78
2021/06/02 00:22:05;;;;;;;6.30;3.03;;;16.20;73.10;;;15.52;64.93;100441.13;5050331;28;20935;-78
2021/06/02 00:24:43;;;;;;;7.30;3.45;;;16.20;73.10;;;15.51;64.76;100433.09;5050017;28;20607;-78
2021/06/02 00:27:21;;;;;;;8.35;3.25;;;16.10;73.00;;;15.48;64.90;100434.41;5069987;22;20045;-79
2021/06/02 00:30:03;;;;;;;5.65;3.42;;;16.10;73.40;;;15.45;65.05;100440.31;5069161;28;20421;-79
2021/06/02 00:32:40;;;;;;;7.55;3.50;;;16.10;73.50;;;15.42;65.50;100433.38;5070017;28;20072;-79
2021/06/02 00:35:20;;;;;;;8.07;3.72;;;16.10;73.70;;;15.39;65.70;100435.69;5069540;28;20045;-79
2021/06/02 00:37:58;;;;;;;5.18;3.45;;;16.00;73.90;;;15.36;65.77;100436.13;5069749;28;20076;-80
2021/06/02 00:40:46;;;;;;;5.78;3.55;;;16.00;74.00;;;15.34;65.83;100444.56;5069495;28;20037;-79
2021/06/02 00:43:27;;;;;;;5.95;4.00;;;16.00;74.00;;;15.29;65.86;100438.03;5069735;28;20048;-80
2021/06/02 00:46:07;;;;;;;7.10;3.53;;;16.00;74.10;;;15.25;66.04;100427.53;5068076;28;20531;-80
2021/06/02 00:48:44;;;;;;;5.60;3.45;;;15.90;74.10;;;15.22;66.12;100425.22;5069637;28;20397;-80
2021/06/02 00:51:25;;;;;;;6.45;3.65;;;15.90;74.20;;;15.20;66.28;100427.34;5069310;28;20053;-80
2021/06/02 00:54:04;;;;;;;5.25;3.42;;;15.90;74.50;;;15.18;66.74;100417.66;5069425;28;20044;-79
2021/06/02 00:56:51;;;;;;;6.72;3.33;;;15.90;74.80;;;15.17;66.73;100427.78;5069312;28;20044;-80
2021/06/02 00:59:40;;;;;;;8.98;3.72;;;15.80;75.00;;;15.13;66.74;100418.28;5049921;28;20420;-79
2021/06/02 01:02:22;;;;;;;7.88;3.47;;;15.80;75.20;;;15.10;67.08;100424.22;5049159;28;20508;-80
2021/06/02 01:05:01;;;;;;;6.38;3.53;;;15.80;75.20;;;15.12;67.16;100421.28;5049271;28;20122;-79
2021/06/02 01:07:43;;;;;;;6.03;3.08;;;15.80;75.40;;;15.10;67.32;100426.97;5049146;28;20060;-80
2021/06/02 01:10:22;;;;;;;8.48;3.85;;;15.80;75.60;;;15.11;67.38;100420.41;5048934;28;20053;-80
2021/06/02 01:13:02;;;;;;;6.45;3.45;;;15.80;75.70;;;15.09;67.34;100425.28;5049140;28;20069;-79
2021/06/02 01:15:38;;;;;;;9.50;3.85;;;15.80;75.70;;;15.09;67.46;100429.91;5048955;28;20056;-79
2021/06/02 01:18:17;;;;;;;9.25;3.75;;;15.70;76.00;;;15.07;67.64;100419.16;5047450;28;20481;-79
2021/06/02 01:20:55;;;;;;;12.00;4.30;;;15.70;76.10;;;15.04;67.84;100417.72;5048600;28;20072;-80
2021/06/02 01:23:32;;;;;;;9.77;3.97;;;15.70;76.20;;;15.03;67.66;100428.88;5048670;28;20068;-79
2021/06/02 01:26:05;;;;;;;9.85;3.90;;;15.70;76.20;;;15.00;68.13;100426.56;5048889;28;20052;-79
2021/06/02 01:28:43;;;;;;;6.70;3.72;;;15.60;76.40;;;14.97;68.25;100430.59;5048732;28;20045;-80
2021/06/02 01:31:32;;;;;;;12.15;4.00;;;15.60;76.50;;;14.96;68.56;100422.56;5048381;28;20095;-79
2021/06/02 01:34:19;;;;;;;6.68;4.00;;;15.60;76.70;;;14.93;68.36;100429.34;5032957;28;20056;-79
2021/06/02 01:37:38;;;;;;;8.25;3.78;;;15.60;76.80;;;14.93;68.44;100429.34;5049481;28;20057;-79
2021/06/02 01:41:16;;;;;;;7.82;3.80;;;15.60;76.90;;;14.89;68.89;100429.97;5068289;28;20377;-80
2021/06/02 01:44:42;;;;;;;7.22;4.28;;;15.50;77.20;;;14.86;68.91;100428.50;4994600;28;20058;-80
2021/06/02 01:48:08;;;;;;;7.15;3.67;;;15.50;77.30;;;14.81;69.22;100428.31;5068352;28;20055;-79
2021/06/02 01:51:58;;;;;;;7.85;4.20;;;15.50;77.40;;;14.77;69.31;100427.88;5068126;28;20102;-79
2021/06/02 01:55:10;;;;;;;7.72;4.20;;;15.50;77.60;;;14.76;69.65;100417.16;5066801;28;20051;-79
2021/06/02 01:58:37;;;;;;;8.60;3.80;;;15.50;77.80;;;14.74;69.66;100422.03;5065090;28;20106;-79
2021/06/02 02:01:49;;;;;;;6.85;4.03;;;15.50;77.90;;;14.73;69.80;100418.41;5048061;28;20055;-80
2021/06/02 02:05:12;;;;;;;10.80;4.45;;;15.40;77.90;;;14.71;70.00;100417.78;5051348;28;20091;-79
2021/06/02 02:08:39;;;;;;;8.95;4.00;;;15.40;78.00;;;14.73;70.15;100415.69;5051406;28;20061;-79
2021/06/02 02:11:35;;;;;;;6.68;4.18;;;15.40;78.10;;;14.71;70.22;100417.78;5067315;28;20075;-79
2021/06/02 02:15:03;;;;;;;8.02;3.75;;;15.40;78.30;;;14.69;70.26;100416.34;5068399;28;20049;-79
2021/06/02 02:18:17;;;;;;;6.55;3.75;;;15.40;78.40;;;14.68;70.23;100412.75;5068437;28;20204;-79
2021/06/02 02:20:59;;;;;;;6.93;4.10;;;15.40;78.50;;;14.68;70.22;100420.13;5060985;28;20056;-79
2021/06/02 02:23:46;;;;;;;10.15;4.10;;;15.40;78.50;;;14.68;70.21;100418.25;5068234;28;20045;-79
2021/06/02 02:26:39;;;;;;;10.30;4.18;;;15.40;78.50;;;14.65;70.30;100419.50;5068311;28;20059;-79
2021/06/02 02:29:38;;;;;;;11.10;3.75;;;15.30;78.50;;;14.64;70.22;100416.97;5068328;28;20055;-79
2021/06/02 02:32:38;;;;;;;7.90;4.10;;;15.30;78.70;;;14.62;70.32;100413.59;5068204;28;20554;-79
2021/06/02 02:35:48;;;;;;;7.78;4.30;;;15.30;78.70;;;14.60;70.74;100413.84;5070770;28;20041;-79
2021/06/02 02:38:57;;;;;;;9.93;4.13;;;15.30;78.80;;;14.59;70.64;100412.13;5039957;28;20060;-79
2021/06/02 02:41:58;;;;;;;7.15;4.13;;;15.30;78.90;;;14.58;70.84;100406.88;5051889;28;20069;-80
2021/06/02 02:44:52;;;;;;;9.88;4.28;;;15.30;78.90;;;14.57;70.33;100421.63;5052018;28;20517;-79
2021/06/02 02:47:39;;;;;;;6.05;3.97;;;15.30;78.90;;;14.57;70.20;100421.63;5051880;28;20068;-79
2021/06/02 02:50:28;;;;;;;10.32;4.35;;;15.30;78.80;;;14.57;70.40;100421.63;5051808;28;20559;-79
2021/06/02 02:53:10;;;;;;;7.72;4.10;;;15.30;78.90;;;14.54;70.79;100422.03;5052029;28;20084;-79
2021/06/02 02:55:53;;;;;;;7.35;4.50;;;15.20;79.00;;;14.51;70.46;100417.81;5051906;28;20045;-79
2021/06/02 02:58:39;;;;;;;6.53;4.22;;;15.30;78.90;;;14.52;70.37;100414.00;5054790;28;20047;-79
2021/06/02 03:01:21;;;;;;;9.75;4.53;;;15.20;78.70;;;14.53;70.45;100418.44;5071547;28;20044;-79
2021/06/02 03:04:10;;;;;;;6.88;4.18;;;15.20;78.80;;;14.52;70.37;100418.66;5071619;28;20045;-79
2021/06/02 03:06:49;;;;;;;11.45;4.75;;;15.20;78.80;;;14.50;70.68;100426.25;5071639;28;20049;-79
2021/06/02 03:09:43;;;;;;;10.60;4.45;;;15.20;78.90;;;14.48;70.72;100424.53;5071330;28;20049;-79
2021/06/02 03:12:40;;;;;;;8.10;4.20;;;15.20;79.00;;;14.45;70.53;100418.69;5071677;28;20052;-79
2021/06/02 03:15:40;;;;;;;10.00;4.43;;;15.20;78.90;;;14.45;70.48;100416.78;5071347;28;20044;-79
2021/06/02 03:18:41;;;;;;;8.90;4.40;;;15.10;79.00;;;14.42;70.35;100419.91;5071330;28;20037;-80
2021/06/02 03:22:02;;;;;;;;;;;15.20;79.00;;;14.43;70.91;100420.75;5070118;28;20501;-79
2021/06/02 03:25:21;;;;;;;7.82;4.50;;;15.10;79.20;;;14.40;71.22;100411.09;5032979;28;19928;-77
2021/06/02 03:28:19;;;;;;;7.97;4.65;;;15.10;79.30;;;14.42;70.94;100422.66;5066883;28;20110;-77
2021/06/02 03:31:09;;;;;;;7.57;4.25;;;15.10;79.30;;;14.39;71.39;100424.97;5070881;28;20550;-78
2021/06/02 03:34:18;;;;;;;9.27;4.75;;;15.10;79.60;;;14.35;71.37;100421.81;5071260;28;20036;-78
2021/06/02 03:37:26;;;;;;;8.70;4.30;;;15.10;79.60;;;14.32;71.75;100421.41;5071012;28;20048;-78
2021/06/02 03:40:15;;;;;;;8.63;4.53;;;15.10;79.70;;;14.31;71.67;100426.03;5067356;28;20056;-78
2021/06/02 03:43:05;;;;;;;9.82;4.68;;;15.10;79.80;;;14.30;71.61;100427.09;5070891;28;20592;-77
2021/06/02 03:46:02;;;;;;;6.38;3.63;;;15.10;79.80;;;14.29;71.72;100425.41;5070505;28;20064;-78
2021/06/02 03:48:47;;;;;;;7.55;4.68;;;15.00;79.90;;;14.30;71.87;100429.84;5070840;28;20049;-78
2021/06/02 03:51:49;;;;;;;8.27;4.00;;;15.00;80.00;;;14.28;71.80;100427.31;5070727;28;20066;-78
2021/06/02 03:54:47;;;;;;;12.10;5.25;;;15.00;80.00;;;14.27;71.61;100422.03;5082809;28;20498;-78
2021/06/02 03:57:32;;;;;;;9.43;4.43;;;15.00;79.90;;;14.27;72.02;100427.53;5049193;28;20507;-78
2021/06/02 04:00:36;;;;;;;9.27;4.80;;;15.00;80.00;;;14.26;71.94;100425.84;5066943;28;20543;-78
2021/06/02 04:03:20;;;;;;;8.07;4.30;;;15.00;80.20;;;14.24;71.96;100427.94;5070221;28;20052;-78
2021/06/02 04:06:13;;;;;;;8.52;4.50;;;15.00;80.30;;;14.22;72.37;100425.44;5063194;28;20037;-78
2021/06/02 04:09:00;;;;;;;8.98;4.05;;;15.00;80.20;;;14.23;72.59;100427.09;5050638;28;20052;-78
2021/06/02 04:11:50;;;;;;;10.93;4.78;;;15.00;80.40;;;14.21;72.45;100428.38;5050110;28;20041;-78
2021/06/02 04:14:36;;;;;;;11.32;5.07;;;15.00;80.50;;;14.21;72.66;100428.38;5051680;28;20100;-78
2021/06/02 04:17:26;;;;;;;7.05;4.38;;;15.00;80.60;;;14.21;72.60;100428.38;5070288;28;20569;-78
2021/06/02 04:20:07;;;;;;;6.60;4.50;;;15.00;80.80;;;14.20;72.80;100426.66;5069999;28;20040;-78
2021/06/02 04:22:43;;;;;;;9.02;4.55;;;15.00;80.90;;;14.21;73.06;100428.38;5070528;28;20054;-78
2021/06/02 04:25:17;;;;;;;9.00;4.78;;;15.00;81.10;;;14.24;73.18;100433.41;5070435;28;20048;-77
2021/06/02 04:28:00;;;;;;;7.47;4.63;;;15.00;81.10;;;14.27;73.47;100431.09;5070236;28;20056;-78
2021/06/02 04:30:41;;;;;;;8.68;4.50;;;15.00;81.20;;;14.31;73.55;100433.41;5069931;28;20037;-78
2021/06/02 04:33:23;;;;;;;9.95;4.50;;;15.10;81.50;;;14.34;73.97;100427.53;5070231;28;20037;-78
2021/06/02 04:35:59;;;;;;;8.77;4.38;;;15.10;81.60;;;14.41;73.40;100433.81;5070253;28;20106;-79
2021/06/02 04:38:37;;;;;;;7.88;4.90;;;15.10;81.50;;;14.49;73.22;100430.88;5070025;28;20495;-79
2021/06/02 04:41:16;;;;;;;8.15;4.85;;;15.20;81.60;;;14.61;72.90;100433.84;5068380;28;20462;-79
2021/06/02 04:43:54;;;;;;;8.18;5.10;;;15.30;81.30;;;14.74;72.41;100427.50;5069912;28;20090;-79
2021/06/02 04:46:29;;;;;;;10.25;5.38;;;15.40;81.10;;;14.81;72.78;100434.66;5070037;28;20047;-79
2021/06/02 04:49:21;;;;;;;11.02;4.90;;;15.50;81.20;;;14.88;72.75;100429.13;5068251;28;20428;-79
2021/06/02 04:52:37;;;;;;;12.00;5.60;;;15.50;81.30;;;14.98;72.65;100428.69;5069759;28;20561;-81
2021/06/02 04:55:58;;;;;;;11.63;5.60;;;15.70;81.10;;;15.08;72.45;100426.34;5030821;28;20156;-80
2021/06/02 04:59:03;;;;;;;6.57;4.60;;;15.80;80.30;;;15.19;72.83;100433.03;5004941;28;20167;-79
2021/06/02 05:02:32;;;;;;;7.85;4.75;;;15.90;80.00;;;15.30;72.22;100426.88;5069259;28;20040;-79
2021/06/02 05:05:41;;;;;;;9.70;5.07;;;16.00;80.10;;;15.39;72.17;100432.97;5044403;28;20053;-79
2021/06/02 05:09:12;;;;;;;8.93;5.10;;;16.10;79.80;;;15.49;71.00;100435.22;5069069;28;20067;-79
2021/06/02 05:12:50;;;;;;;7.25;4.60;;;16.20;78.90;;;15.54;68.88;100430.75;5044799;28;20065;-79
2021/06/02 05:16:23;;;;;;;7.88;5.13;;;16.20;76.20;;;15.61;71.06;100439.81;4986518;28;20054;-78
2021/06/02 05:19:57;;;;;;;9.13;5.18;;;16.40;78.40;;;15.69;70.19;100437.84;5017548;28;20069;-78
2021/06/02 05:23:28;;;;;;;6.82;4.95;;;16.50;78.00;;;15.77;70.31;100440.38;5049273;28;20120;-78
2021/06/02 05:26:32;;;;;;;8.05;4.85;;;16.60;77.90;;;15.82;69.62;100446.88;5047918;28;20061;-78
2021/06/02 05:30:07;;;;;;;11.23;5.30;;;16.70;76.90;;;15.88;67.85;100439.66;5048165;28;20069;-79
2021/06/02 05:33:15;;;;;;;11.45;4.78;;;16.80;75.00;;;15.94;65.07;100444.28;4987396;28;20526;-80
2021/06/02 05:36:36;;;;;;;13.25;5.45;;;16.80;73.20;;;16.00;65.62;100448.03;5049100;28;20141;-81
2021/06/02 05:39:39;;;;;;;8.57;4.90;;;16.90;72.40;;;16.05;65.07;100445.47;5020094;28;20604;-81
2021/06/02 05:42:26;;;;;;;10.75;4.72;;;17.00;72.00;;;16.14;64.55;100448.75;5026878;28;20500;-79
2021/06/02 05:45:52;;;;;;;9.75;4.57;;;17.10;71.80;;;16.31;64.11;100449.88;5048960;28;20040;-76
2021/06/02 05:49:31;;;;;;;11.07;4.55;;;17.40;71.30;;;16.58;64.82;100449.66;4977466;28;20093;-76
2021/06/02 05:52:36;;;;;;;9.07;4.60;;;18.70;69.80;;;16.87;63.62;100452.78;5068911;28;20075;-76
2021/06/02 05:55:48;;;;;;;8.45;4.70;;;19.50;66.30;;;17.14;62.22;100448.66;5047962;28;20060;-76
2021/06/02 05:59:03;;;;;;;8.40;4.72;;;20.00;64.20;;;17.44;61.58;100441.53;5051034;28;20056;-76
2021/06/02 06:02:19;;;;;;;9.48;5.07;;;20.30;62.40;;;17.70;59.71;100440.31;5068359;28;20070;-76
2021/06/02 06:05:47;;;;;;;7.38;4.55;;;20.50;60.40;;;17.98;58.63;100448.00;5053674;28;20080;-76
2021/06/02 06:09:04;;;;;;;10.35;4.70;;;20.80;58.80;;;18.27;57.78;100434.41;5032703;28;20087;-77
2021/06/02 06:12:34;;;;;;;8.48;4.75;;;21.30;57.50;;;18.58;57.95;100435.97;5048295;28;20056;-76
2021/06/02 06:16:06;;;;;;;9.77;4.53;;;21.80;56.10;;;18.79;57.87;100429.03;5026868;28;20457;-76
2021/06/02 06:19:20;;;;;;;9.60;4.40;;;22.60;54.50;;;18.97;57.34;100432.75;5047093;28;20056;-76
2021/06/02 06:22:35;;;;;;;9.75;4.47;;;23.40;51.80;;;19.14;55.94;100439.19;5029822;28;20421;-77
2021/06/02 06:25:18;;;;;;;11.68;4.45;;;24.20;47.80;;;19.30;55.28;100432.88;5048319;28;20048;-76
2021/06/02 06:27:59;;;;;;;9.10;4.15;;;24.70;45.60;;;19.42;55.96;100435.63;5067738;22;20052;-75
2021/06/02 06:30:43;;;;;;;7.47;4.30;;;25.20;45.40;;;19.45;56.82;100435.13;5047705;28;20045;-75
2021/06/02 06:33:24;;;;;;;7.22;3.90;;;24.50;48.80;;;19.44;55.87;100427.94;5046872;28;20041;-75
2021/06/02 06:36:12;;;;;;;8.98;3.90;;;23.60;50.30;;;19.43;56.92;100436.47;5048262;28;20435;-76
2021/06/02 06:39:15;;;;;;;8.05;4.03;;;23.00;52.80;;;19.39;56.33;100429.75;5034471;28;20108;-75
2021/06/02 06:41:50;;;;;;;11.02;3.50;;;22.60;53.40;;;19.39;56.71;100430.59;5027938;28;20041;-75
2021/06/02 06:44:30;;;;;;;7.75;3.58;;;22.30;55.20;;;19.36;56.32;100425.56;5028197;28;20068;-75
2021/06/02 06:47:08;;;;;;;10.13;3.67;;;22.00;55.20;;;19.32;56.43;100422.47;5028343;28;20080;-75
2021/06/02 06:49:45;;;;;;;7.85;3.30;;;21.90;56.00;;;19.32;56.75;100425.22;5027920;28;20092;-75
2021/06/02 06:52:34;;;;;;;6.30;3.40;;;21.70;56.40;;;19.27;56.26;100427.88;5028162;28;20054;-77
2021/06/02 06:55:15;;;;;;;8.77;3.55;;;21.60;56.50;;;19.27;55.38;100422.34;5028158;28;20076;-75
2021/06/02 06:57:50;;;;;;;9.15;3.63;;;21.50;55.70;;;19.28;56.81;100425.94;5026843;28;20052;-75
2021/06/02 07:00:29;;;;;;;10.57;3.47;;;21.50;58.40;;;19.25;55.45;100423.69;5046633;28;20516;-74
2021/06/02 07:03:08;;;;;;;9.20;3.35;;;21.50;56.60;;;19.22;55.09;100429.69;5046734;28;20067;-75
2021/06/02 07:05:47;;;;;;;8.77;3.40;;;21.50;56.50;;;19.24;56.65;100430.28;5047947;28;20041;-75
2021/06/02 07:08:28;;;;;;;6.20;3.35;;;21.40;57.50;;;19.27;55.58;100418.78;5046420;28;20451;-75
2021/06/02 07:11:04;;;;;;;;;;;21.40;56.90;;;19.32;55.82;100422.47;5047838;28;20087;-75
2021/06/02 07:13:48;;;;;;;9.70;3.67;;;21.40;57.20;;;19.30;54.02;100423.78;5047721;28;19928;-75
2021/06/02 07:16:25;;;;;;;7.80;3.50;;;21.40;55.70;;;19.31;55.37;100422.72;5038878;28;20049;-76
2021/06/02 07:19:04;;;;;;;5.70;2.78;;;21.40;56.60;;;19.32;53.07;100418.84;5047539;28;20079;-76
2021/06/02 07:21:38;;;;;;;7.68;3.13;;;21.40;54.90;;;19.34;53.66;100417.53;5050646;28;20073;-76
2021/06/02 07:24:28;;;;;;;7.22;3.40;;;21.40;55.10;;;19.37;53.59;100415.38;5049934;28;20072;-76
2021/06/02 07:27:01;;;;;;;8.60;3.25;;;21.40;55.00;;;19.46;52.55;100411.97;5051324;28;20120;-76
2021/06/02 07:29:37;;;;;;;8.68;3.70;;;21.40;54.40;;;19.43;52.42;100417.97;5050685;28;20077;-76
2021/06/02 07:32:15;;;;;;;6.32;3.03;;;21.40;54.20;;;19.55;54.79;100417.91;5038439;28;20056;-76
2021/06/02 07:34:53;;;;;;;7.18;3.17;;;21.50;56.80;;;19.58;51.27;100422.13;5042283;28;20420;-79
2021/06/02 07:37:31;;;;;;;6.13;3.17;;;21.50;54.00;;;19.54;50.27;100428.13;5049059;28;20102;-79
2021/06/02 07:40:10;;;;;;;7.15;2.80;;;21.40;53.00;;;19.52;51.53;100430.31;5044132;28;20083;-80
2021/06/02 07:42:48;;;;;;;5.97;3.20;;;21.50;53.40;;;19.57;53.21;100423.19;5038839;28;20045;-80
2021/06/02 07:45:24;;;;;;;9.20;3.40;;;21.50;54.00;;;19.59;52.79;100423.78;5044373;28;20204;-76
2021/06/02 07:48:03;;;;;;;9.45;3.13;;;21.50;54.70;;;19.61;52.45;100425.25;5039505;28;20139;-77
2021/06/02 07:50:41;;;;;;;6.60;3.33;;;21.50;54.40;;;19.60;52.04;100431.00;5049974;28;20041;-77
2021/06/02 07:53:19;;;;;;;9.27;3.42;;;21.50;53.60;;;19.79;55.71;100420.63;5050684;28;20079;-77
2021/06/02 07:55:58;;;;;;;7.00;3.45;;;21.60;58.20;;;19.83;53.66;100419.88;5031003;28;20045;-77
2021/06/02 07:58:34;;;;;;;7.68;3.20;;;21.60;55.50;;;19.84;53.66;100416.03;5043367;28;20044;-76
2021/06/02 08:01:21;;;;;;;8.98;3.40;;;21.70;55.90;;;19.99;53.15;100433.94;5048925;28;20460;-77
2021/06/02 08:03:56;;;;;;;5.47;3.30;;;21.70;55.70;;;20.05;56.67;100428.28;5050200;28;20498;-79
2021/06/02 08:06:29;;;;;;;6.93;3.33;;;21.80;57.90;;;20.12;56.88;100425.34;5050800;28;20052;-80
2021/06/02 08:09:04;;;;;;;6.88;3.20;;;21.90;58.10;;;20.04;53.47;100421.06;5049156;28;20064;-79
2021/06/02 08:11:38;;;;;;;8.50;3.08;;;21.90;55.30;;;20.03;53.37;100424.06;5048479;28;20049;-79
2021/06/02 08:14:13;;;;;;;7.47;3.42;;;21.90;55.20;;;20.13;56.08;100421.50;5050676;28;20524;-79
2021/06/02 08:19:38;;;;;;;5.88;2.80;;;22.00;56.50;;;20.25;57.42;100422.25;5049287;28;20096;-79
2021/06/02 08:22:16;;;;;;;7.10;3.50;;;22.10;58.40;;;20.25;55.96;100416.72;5050226;28;20072;-80
2021/06/02 08:24:54;;;;;;;5.80;3.03;;;22.10;56.90;;;20.24;53.55;100419.75;5050284;28;20037;-79
2021/06/02 08:27:33;;;;;;;4.90;2.95;;;22.10;55.10;;;20.31;54.11;100421.25;5049855;28;20041;-80
2021/06/02 08:30:13;;;;;;;6.10;2.92;;;22.10;56.20;;;20.33;55.95;100409.09;5049914;28;20072;-79
2021/06/02 08:32:54;;;;;;;7.53;3.53;;;22.10;57.60;;;20.35;53.89;100410.50;5046509;28;20568;-79
2021/06/02 08:35:32;;;;;;;7.25;2.85;;;22.20;54.60;;;20.41;51.04;100408.66;5050224;28;20071;-79
2021/06/02 08:38:07;;;;;;;6.32;2.95;;;22.20;52.60;;;20.44;50.64;100409.00;5050036;28;20083;-79
2021/06/02 08:40:42;;;;;;;6.28;2.83;;;22.30;53.30;;;20.54;57.19;100408.31;5049858;28;20416;-80
2021/06/02 08:43:29;;;;;;;5.30;2.63;;;22.30;58.00;;;20.64;55.56;100408.53;5049768;28;20292;-79
2021/06/02 08:46:01;;;;;;;6.43;3.03;;;22.40;56.60;;;20.62;52.91;100410.69;5049895;28;20052;-80
2021/06/02 08:48:37;;;;;;;7.47;3.13;;;22.40;54.80;;;20.57;51.87;100412.53;5049972;28;20049;-80
2021/06/02 08:51:12;;;;;;;7.20;3.13;;;22.40;53.70;;;20.64;52.47;100414.03;5048505;28;20048;-80
2021/06/02 08:53:49;;;;;;;5.18;3.00;;;22.40;54.20;;;20.75;52.47;100411.41;5050068;28;20037;-80
2021/06/02 08:56:27;;;;;;;5.45;2.67;;;22.60;55.30;;;20.72;51.50;100414.72;5050071;28;20485;-80
2021/06/02 08:59:05;;;;;;;5.30;2.70;;;22.60;53.30;;;20.74;52.34;100407.00;5048768;28;20520;-80
2021/06/02 09:01:46;;;;;;;9.98;3.13;;;22.60;53.60;;;20.75;48.03;100412.25;5049399;28;20052;-80
2021/06/02 09:04:24;;;;;;;4.80;2.85;;;22.60;50.10;;;20.77;52.91;100412.84;5049630;28;20087;-80
2021/06/02 09:07:03;;;;;;;6.25;2.70;;;22.60;54.70;;;20.79;49.29;100410.66;5049804;28;20051;-78
2021/06/02 09:09:42;;;;;;;8.02;3.28;;;22.70;51.30;;;20.84;50.32;100407.97;5049664;28;20049;-77
2021/06/02 09:12:17;;;;;;;11.85;2.75;;;22.70;51.90;;;20.96;49.58;100410.63;5049740;28;20497;-77
2021/06/02 09:15:02;;;;;;;7.28;2.85;;;22.70;51.40;;;21.12;45.90;100411.66;5049893;28;20097;-76
2021/06/02 09:17:47;;;;;;;5.80;3.08;;;22.80;49.00;;;21.13;48.86;100410.53;5064791;28;20468;-77
2021/06/02 09:20:42;;;;;;;6.78;2.70;;;22.90;50.70;;;21.14;46.05;100405.88;5047722;28;20061;-77
2021/06/02 09:23:40;;;;;;;4.90;2.67;;;22.90;48.50;;;21.05;45.03;100411.00;5049496;28;20041;-76
2021/06/02 09:26:27;;;;;;;9.07;3.25;;;22.90;46.70;;;21.15;49.93;100416.69;5049673;28;20086;-77
2021/06/02 09:29:08;;;;;;;7.18;3.10;;;23.00;51.70;;;21.25;48.37;100419.56;5049070;28;20102;-77
2021/06/02 09:31:47;;;;;;;6.15;2.78;;;23.00;51.40;;;21.44;46.75;100411.78;5064313;28;20084;-77
2021/06/02 09:34:27;;;;;;;5.10;2.70;;;23.20;49.30;;;21.39;47.90;100403.38;5049235;28;20041;-77
2021/06/02 09:37:06;;;;;;;5.88;2.83;;;23.20;49.40;;;21.42;51.72;100402.06;5049372;28;20052;-77
2021/06/02 09:39:46;;;;;;;4.68;2.85;;;23.20;52.40;;;21.60;49.88;100400.88;5048914;28;20049;-77
2021/06/02 09:42:32;;;;;;;6.13;3.20;;;23.30;52.70;;;21.52;51.81;100395.81;5047933;28;20037;-77
2021/06/02 09:45:14;;;;;;;5.55;2.78;;;23.40;53.20;;;21.67;49.18;100393.22;5049222;28;20500;-77
2021/06/02 09:47:55;;;;;;;7.18;2.80;;;23.50;50.70;;;21.69;49.97;100396.56;5047710;28;20056;-77
2021/06/02 09:50:45;;;;;;;5.75;3.20;;;23.50;52.00;;;21.73;49.04;100397.69;5049010;28;20049;-76
2021/06/02 09:53:26;;;;;;;7.05;2.78;;;23.50;50.50;;;21.71;49.03;100399.91;5048925;28;20459;-77
2021/06/02 09:56:01;;;;;;;6.65;3.00;;;23.60;50.20;;;21.70;50.24;100398.22;5048148;28;20103;-76
2021/06/02 09:58:45;;;;;;;11.00;3.38;;;23.60;51.70;;;21.71;50.59;100397.13;5046820;28;20044;-77
2021/06/02 10:01:20;;;;;;;5.15;2.78;;;23.60;51.80;;;21.71;47.73;100393.53;5048877;28;20091;-77
2021/06/02 10:04:03;;;;;;;4.80;2.65;;;23.70;49.40;;;21.77;50.21;100392.47;5047262;28;20041;-77
2021/06/02 10:06:46;;;;;;;6.65;2.80;;;23.70;51.00;;;21.74;47.64;100398.53;5048959;28;20056;-77
2021/06/02 10:09:25;;;;;;;9.20;3.53;;;23.70;49.30;;;21.77;51.42;100387.75;5048467;28;20052;-76
2021/06/02 10:12:11;;;;;;;5.53;2.83;;;23.70;52.90;;;21.85;46.06;100387.28;5045383;28;20052;-76
2021/06/02 10:15:00;;;;;;;8.23;2.70;;;23.80;48.00;;;21.89;46.95;100389.53;5047258;28;20049;-80
2021/06/02 10:17:40;;;;;;;9.30;2.75;;;23.80;48.90;;;21.86;50.32;100383.41;5048488;28;20088;-76
2021/06/02 10:20:23;;;;;;;5.75;2.42;;;23.80;51.20;;;21.99;49.38;100384.91;5048373;28;20045;-79
2021/06/02 10:23:05;;;;;;;6.00;2.80;;;23.80;51.30;;;21.99;45.62;100384.06;5046664;28;20073;-78
2021/06/02 10:25:37;;;;;;;7.85;2.53;;;23.90;46.70;;;22.04;45.68;100392.44;5046068;28;20083;-77
2021/06/02 10:28:16;;;;;;;4.55;2.47;;;23.90;47.40;;;22.08;42.73;100398.28;5045389;28;20181;-77
2021/06/02 10:30:53;;;;;;;7.22;2.70;;;23.90;44.20;;;22.13;43.44;100390.03;5045774;28;20497;-77
2021/06/02 10:33:31;;;;;;;4.93;2.58;;;24.00;45.70;;;22.12;42.52;100383.63;5048337;28;20455;-77
2021/06/02 10:36:13;;;;;;;5.18;2.78;;;24.00;43.20;;;21.96;45.39;100396.53;5063886;28;20559;-76
2021/06/02 10:38:55;;;;;;;5.38;2.40;;;24.00;45.20;;;21.86;45.73;100388.97;5048372;28;20072;-76
2021/06/02 10:41:37;;;;;;;5.35;2.35;;;23.90;46.90;;;21.99;43.50;100393.25;5048160;28;20063;-76
2021/06/02 10:44:13;;;;;;;;;;;24.00;44.30;;;22.16;43.24;100386.69;5047352;28;20110;-77
2021/06/02 10:46:51;;;;;;;6.20;2.58;;;24.00;44.80;;;22.16;47.28;100389.47;5048014;28;19924;-76
2021/06/02 10:49:36;;;;;;;5.45;2.60;;;24.10;48.40;;;22.10;47.22;100391.38;5048046;28;20048;-79
2021/06/02 10:52:47;;;;;;;4.78;2.50;;;24.10;46.70;;;22.06;45.65;100385.50;5048533;28;20044;-76
2021/06/02 10:55:50;;;;;;;5.23;2.33;;;24.10;46.90;;;22.09;44.66;100394.44;5047930;28;20416;-77
2021/06/02 10:58:37;;;;;;;5.95;2.30;;;24.00;46.40;;;21.98;38.66;100391.56;5052234;28;20413;-78
2021/06/02 11:01:30;;;;;;;6.25;2.88;;;23.90;41.30;;;21.86;43.76;100391.72;5051662;28;20417;-77
2021/06/02 11:04:17;;;;;;;4.68;2.28;;;23.80;44.40;;;21.88;44.51;100382.34;5048764;28;20055;-80
2021/06/02 11:06:53;;;;;;;7.28;2.83;;;23.80;46.30;;;21.99;45.11;100390.47;5049482;28;20072;-80
2021/06/02 11:09:56;;;;;;;5.95;2.47;;;23.70;46.60;;;22.06;39.86;100379.97;5051858;28;20049;-80
2021/06/02 11:13:08;;;;;;;6.05;2.45;;;23.80;41.60;;;22.09;42.56;100378.63;5051779;28;20553;-76
2021/06/02 11:15:57;;;;;;;7.00;2.60;;;23.80;44.10;;;21.92;43.95;100389.84;5051294;28;20049;-76
2021/06/02 11:18:35;;;;;;;5.75;2.33;;;23.70;45.10;;;21.88;42.67;100387.88;5051658;28;20048;-76
2021/06/02 11:21:20;;;;;;;6.72;2.40;;;23.70;44.30;;;21.99;42.03;100384.06;5046252;28;20116;-76
2021/06/02 11:23:56;;;;;;;5.22;2.00;;;23.70;43.80;;;22.09;41.31;100381.41;5031565;28;20057;-82
2021/06/02 11:26:33;;;;;;;8.82;2.55;;;23.80;42.40;;;22.07;44.72;100375.28;5031655;28;20490;-81
2021/06/02 11:29:22;;;;;;;7.13;2.47;;;23.80;44.50;;;22.09;42.03;100381.41;5041855;28;20068;-81
2021/06/02 11:32:01;;;;;;;5.07;2.22;;;23.80;43.80;;;22.17;41.73;100380.06;5051147;28;20091;-77
2021/06/02 11:34:40;;;;;;;4.85;2.42;;;23.90;43.80;;;22.15;42.84;100377.56;5051329;28;20037;-77
2021/06/02 11:37:13;;;;;;;5.68;2.50;;;23.90;43.80;;;22.16;40.51;100379.25;5051276;28;20045;-77
2021/06/02 11:39:53;;;;;;;4.15;2.20;;;23.90;42.50;;;22.09;38.67;100378.63;5050194;28;20077;-77
2021/06/02 11:42:39;;;;;;;4.82;2.35;;;23.90;39.80;;;21.96;38.24;100385.44;5051371;28;20048;-77
2021/06/02 11:45:17;;;;;;;4.75;2.38;;;23.80;40.60;;;21.86;37.63;100369.56;5051182;28;20037;-77
2021/06/02 11:48:00;;;;;;;4.05;2.28;;;23.70;38.70;;;21.77;37.01;100371.13;5050997;28;20048;-77